Time;durP1;ratioP1;P1;durP2;ratioP2;P2;SDS_P1;SDS_P2;PMS_P1;PMS_P2;Temp;Humidity;BMP_temperature;BMP_pressure;BME280_temperature;BME280_humidity;BME280_pressure;Samples;Min_cycle;Max_cycle;Signal;HPM_P1;HPM_P2
2023/03/17 00:00:55;;;;;;;26.40;12.30;;;;;;;;;;10339915;28;20052;-69
2023/03/17 00:05:57;;;;;;;22.83;11.73;;;;;;;;;;10339984;28;20801;-69
2023/03/17 00:10:57;;;;;;;21.08;11.27;;;;;;;;;;10339853;28;20030;-69
2023/03/17 00:16:02;;;;;;;25.53;13.40;;;;;;;;;;10340000;28;20022;-69
2023/03/17 00:21:03;;;;;;;20.52;12.23;;;;;;;;;;10338130;28;20275;-69
2023/03/17 00:26:03;;;;;;;22.08;11.80;;;;;;;;;;10339681;28;20030;-69
2023/03/17 00:31:10;;;;;;;19.02;11.02;;;;;;;;;;10339553;28;20026;-70
2023/03/17 00:36:18;;;;;;;21.92;11.48;;;;;;;;;;10339393;28;20041;-70
2023/03/17 00:41:19;;;;;;;19.13;10.98;;;;;;;;;;10342648;28;20144;-70
2023/03/17 00:46:27;;;;;;;18.73;11.35;;;;;;;;;;10339103;28;20050;-70
2023/03/17 00:51:28;;;;;;;15.45;9.63;;;;;;;;;;10342507;28;20428;-70
2023/03/17 00:56:28;;;;;;;16.67;10.15;;;;;;;;;;10361789;28;20030;-70
2023/03/17 01:01:29;;;;;;;16.73;10.03;;;;;;;;;;10346717;28;20469;-70
2023/03/17 01:06:29;;;;;;;20.90;11.25;;;;;;;;;;10346825;28;20134;-70
2023/03/17 01:11:32;;;;;;;16.33;9.57;;;;;;;;;;10347027;28;20040;-70
2023/03/17 01:16:32;;;;;;;18.23;9.93;;;;;;;;;;10346197;28;20065;-70
2023/03/17 01:21:33;;;;;;;19.25;10.82;;;;;;;;;;10345664;28;20022;-70
2023/03/17 01:26:33;;;;;;;14.75;9.85;;;;;;;;;;10345973;28;20029;-68
2023/03/17 01:31:34;;;;;;;22.55;10.60;;;;;;;;;;10345631;28;20069;-70
2023/03/17 01:36:34;;;;;;;17.03;10.03;;;;;;;;;;10345037;28;20034;-70
2023/03/17 01:41:36;;;;;;;18.57;10.00;;;;;;;;;;10344984;28;20037;-69
2023/03/17 01:46:37;;;;;;;22.98;11.30;;;;;;;;;;10345153;28;20057;-70
2023/03/17 01:51:37;;;;;;;20.38;10.95;;;;;;;;;;10344432;28;20034;-70
2023/03/17 01:56:39;;;;;;;20.38;11.07;;;;;;;;;;10343942;28;20500;-70
2023/03/17 02:01:42;;;;;;;20.80;11.18;;;;;;;;;;10343889;28;20512;-70
2023/03/17 02:06:43;;;;;;;20.55;10.90;;;;;;;;;;10329240;28;20057;-69
2023/03/17 02:11:44;;;;;;;17.75;9.90;;;;;;;;;;10344457;28;20113;-69
2023/03/17 02:16:45;;;;;;;19.20;11.45;;;;;;;;;;10328177;28;20418;-69
2023/03/17 02:21:48;;;;;;;23.48;11.35;;;;;;;;;;10332874;28;20497;-70
2023/03/17 02:26:50;;;;;;;19.60;10.70;;;;;;;;;;10342981;28;20489;-69
2023/03/17 02:31:51;;;;;;;20.98;11.02;;;;;;;;;;10342746;28;20045;-70
2023/03/17 02:36:51;;;;;;;17.90;10.15;;;;;;;;;;10343275;28;20022;-70
2023/03/17 02:41:52;;;;;;;18.50;10.03;;;;;;;;;;10342748;28;20026;-70
2023/03/17 02:46:52;;;;;;;18.58;10.00;;;;;;;;;;10342655;28;20050;-70
2023/03/17 02:51:52;;;;;;;14.32;9.55;;;;;;;;;;10341775;28;20030;-70
2023/03/17 02:56:53;;;;;;;16.83;9.33;;;;;;;;;;10357833;28;20056;-69
2023/03/17 03:01:54;;;;;;;16.77;9.00;;;;;;;;;;10342358;28;21032;-69
2023/03/17 03:06:56;;;;;;;18.95;9.93;;;;;;;;;;10341796;28;20453;-69
2023/03/17 03:11:56;;;;;;;17.00;9.95;;;;;;;;;;10345564;28;20040;-69
2023/03/17 03:16:57;;;;;;;19.10;10.17;;;;;;;;;;10341376;28;20038;-69
2023/03/17 03:21:57;;;;;;;16.80;9.05;;;;;;;;;;10340910;28;20335;-70
2023/03/17 03:26:57;;;;;;;22.97;10.30;;;;;;;;;;10341308;28;20030;-69
2023/03/17 03:31:58;;;;;;;18.65;9.95;;;;;;;;;;10346870;28;20030;-69
2023/03/17 03:36:58;;;;;;;17.30;9.37;;;;;;;;;;10310609;28;20044;-69
2023/03/17 03:41:59;;;;;;;19.17;9.38;;;;;;;;;;10340628;28;20389;-69
2023/03/17 03:47:00;;;;;;;15.00;8.30;;;;;;;;;;10341039;28;20060;-69
2023/03/17 03:52:00;;;;;;;19.55;9.82;;;;;;;;;;10340070;28;20042;-69
2023/03/17 03:57:01;;;;;;;17.15;8.85;;;;;;;;;;10339756;28;20053;-70
2023/03/17 04:02:01;;;;;;;17.23;9.75;;;;;;;;;;10341162;28;20030;-69
2023/03/17 04:07:01;;;;;;;19.30;11.20;;;;;;;;;;10339739;28;20034;-70
2023/03/17 04:12:02;;;;;;;20.37;11.40;;;;;;;;;;10340141;28;20401;-70
2023/03/17 04:17:04;;;;;;;18.13;10.80;;;;;;;;;;10339650;28;20061;-70
2023/03/17 04:22:05;;;;;;;26.73;10.68;;;;;;;;;;10322966;28;20481;-70
2023/03/17 04:27:06;;;;;;;19.40;10.45;;;;;;;;;;10324037;28;20037;-70
2023/03/17 04:32:07;;;;;;;26.85;12.43;;;;;;;;;;10348192;28;20118;-71
2023/03/17 04:37:08;;;;;;;16.77;10.88;;;;;;;;;;10347598;28;20038;-70
2023/03/17 04:42:08;;;;;;;25.30;13.38;;;;;;;;;;10346849;28;20026;-70
2023/03/17 04:47:08;;;;;;;26.05;14.55;;;;;;;;;;10347328;28;20100;-70
2023/03/17 04:52:09;;;;;;;19.80;11.47;;;;;;;;;;10346816;28;20090;-70
2023/03/17 04:57:10;;;;;;;19.25;10.77;;;;;;;;;;10338291;28;20386;-71
2023/03/17 05:02:11;;;;;;;16.83;10.13;;;;;;;;;;10344814;28;20032;-69
2023/03/17 05:07:11;;;;;;;17.17;10.40;;;;;;;;;;10346557;28;20093;-70
2023/03/17 05:12:12;;;;;;;16.65;9.13;;;;;;;;;;10345529;28;20041;-71
2023/03/17 05:17:12;;;;;;;17.85;10.35;;;;;;;;;;10345050;28;20041;-71
2023/03/17 05:22:13;;;;;;;20.57;10.37;;;;;;;;;;10344667;28;20376;-71
2023/03/17 05:27:13;;;;;;;15.50;9.33;;;;;;;;;;10345289;28;20268;-70
2023/03/17 05:32:13;;;;;;;16.63;8.48;;;;;;;;;;10343735;28;20397;-70
2023/03/17 05:37:14;;;;;;;15.70;8.27;;;;;;;;;;10343802;28;20408;-70
2023/03/17 05:42:15;;;;;;;18.23;8.45;;;;;;;;;;10343911;28;20287;-70
2023/03/17 05:47:15;;;;;;;12.88;8.27;;;;;;;;;;10343688;28;20349;-70
2023/03/17 05:52:16;;;;;;;15.10;8.40;;;;;;;;;;10350168;28;20543;-70
2023/03/17 05:57:16;;;;;;;16.33;9.63;;;;;;;;;;10343743;28;20038;-71
2023/03/17 06:02:16;;;;;;;24.25;10.50;;;;;;;;;;10336481;28;20059;-71
2023/03/17 06:07:16;;;;;;;12.30;8.13;;;;;;;;;;10316272;28;20030;-71
2023/03/17 06:12:17;;;;;;;16.85;9.40;;;;;;;;;;10321813;28;20030;-71
2023/03/17 06:17:17;;;;;;;21.03;12.67;;;;;;;;;;10333058;28;20046;-71
2023/03/17 06:22:17;;;;;;;22.98;11.80;;;;;;;;;;10336563;28;20037;-70
2023/03/17 06:27:18;;;;;;;15.48;8.85;;;;;;;;;;10342817;28;20491;-71
2023/03/17 06:32:18;;;;;;;20.42;9.88;;;;;;;;;;10338000;28;20061;-71
2023/03/17 06:37:20;;;;;;;17.90;9.20;;;;;;;;;;10337769;28;20084;-71
2023/03/17 06:42:20;;;;;;;17.45;9.65;;;;;;;;;;10342003;28;20017;-71
2023/03/17 06:47:21;;;;;;;14.30;8.93;;;;;;;;;;10347159;28;20414;-70
2023/03/17 06:52:21;;;;;;;18.48;9.48;;;;;;;;;;10317477;28;20030;-71
2023/03/17 06:57:22;;;;;;;18.87;8.33;;;;;;;;;;10337737;28;20497;-71
2023/03/17 07:02:23;;;;;;;17.70;8.70;;;;;;;;;;10338128;28;20283;-70
2023/03/17 07:07:24;;;;;;;15.27;8.43;;;;;;;;;;10341246;28;20050;-71
2023/03/17 07:12:24;;;;;;;12.88;7.43;;;;;;;;;;10331733;28;20357;-70
2023/03/17 07:17:25;;;;;;;9.85;7.03;;;;;;;;;;10352737;28;20045;-70
2023/03/17 07:22:25;;;;;;;12.82;7.22;;;;;;;;;;10338130;28;20026;-71
2023/03/17 07:27:26;;;;;;;14.38;8.30;;;;;;;;;;10339055;28;20065;-71
2023/03/17 07:32:26;;;;;;;14.23;7.30;;;;;;;;;;10341450;28;20145;-72
2023/03/17 07:37:27;;;;;;;14.57;9.27;;;;;;;;;;10345183;28;20123;-71
2023/03/17 07:42:27;;;;;;;15.23;8.53;;;;;;;;;;10346717;28;20388;-70
2023/03/17 07:47:28;;;;;;;16.20;6.97;;;;;;;;;;10340479;28;20309;-71
2023/03/17 07:52:28;;;;;;;14.70;7.18;;;;;;;;;;10337993;28;20038;-71
2023/03/17 07:57:28;;;;;;;14.47;7.70;;;;;;;;;;10339598;28;20037;-70
2023/03/17 08:02:30;;;;;;;11.05;6.93;;;;;;;;;;10338868;28;20264;-69
2023/03/17 08:07:30;;;;;;;11.88;7.13;;;;;;;;;;10336232;28;20038;-70
2023/03/17 08:12:31;;;;;;;14.13;7.18;;;;;;;;;;10338067;28;20026;-70
2023/03/17 08:17:31;;;;;;;13.63;7.85;;;;;;;;;;10339435;28;20018;-70
2023/03/17 08:22:31;;;;;;;13.55;7.50;;;;;;;;;;10339160;28;20083;-70
2023/03/17 08:27:32;;;;;;;14.52;6.93;;;;;;;;;;10339010;28;20026;-71
2023/03/17 08:32:32;;;;;;;17.13;9.00;;;;;;;;;;10339556;28;20030;-71
2023/03/17 08:37:32;;;;;;;15.50;7.25;;;;;;;;;;10338631;28;20579;-70
2023/03/17 08:42:33;;;;;;;17.90;7.20;;;;;;;;;;10338659;28;20053;-70
2023/03/17 08:47:33;;;;;;;12.97;7.20;;;;;;;;;;10338968;28;20505;-70
2023/03/17 08:52:34;;;;;;;18.02;6.72;;;;;;;;;;10338807;28;20064;-70
2023/03/17 08:57:35;;;;;;;11.32;6.57;;;;;;;;;;10338290;28;20096;-71
2023/03/17 09:02:36;;;;;;;22.05;7.43;;;;;;;;;;10338393;28;20389;-70
2023/03/17 09:07:36;;;;;;;11.07;6.05;;;;;;;;;;10338564;28;20087;-71
2023/03/17 09:12:37;;;;;;;10.13;6.50;;;;;;;;;;10342225;28;20116;-70
2023/03/17 09:17:37;;;;;;;11.00;6.13;;;;;;;;;;10345686;28;20456;-70
2023/03/17 09:22:37;;;;;;;8.13;5.30;;;;;;;;;;10346068;28;20265;-70
2023/03/17 09:27:38;;;;;;;9.73;5.43;;;;;;;;;;10345786;28;20034;-70
2023/03/17 09:32:41;;;;;;;9.20;5.43;;;;;;;;;;10344477;28;20056;-70
2023/03/17 09:37:41;;;;;;;14.40;6.60;;;;;;;;;;10345081;28;20485;-70
2023/03/17 09:43:00;;;;;;;10.03;6.37;;;;;;;;;;10344983;28;20076;-70
2023/03/17 09:48:26;;;;;;;10.90;5.60;;;;;;;;;;10343921;28;20367;-69
2023/03/17 09:53:46;;;;;;;11.18;5.03;;;;;;;;;;10328791;28;20104;-70
2023/03/17 09:58:50;;;;;;;9.65;5.13;;;;;;;;;;10344611;28;20489;-70
2023/03/17 10:03:51;;;;;;;8.38;4.55;;;;;;;;;;10344024;28;20045;-70
2023/03/17 10:09:06;;;;;;;7.35;4.47;;;;;;;;;;10343527;28;20026;-70
2023/03/17 10:14:16;;;;;;;10.02;5.00;;;;;;;;;;10370510;28;20114;-71
2023/03/17 10:19:26;;;;;;;7.40;4.10;;;;;;;;;;10378491;28;20099;-70
2023/03/17 10:24:29;;;;;;;14.35;5.72;;;;;;;;;;10346543;28;20052;-71
2023/03/17 10:29:31;;;;;;;10.07;5.18;;;;;;;;;;10335005;28;20075;-73
2023/03/17 10:34:32;;;;;;;12.80;7.40;;;;;;;;;;10341420;28;20384;-71
2023/03/17 10:39:40;;;;;;;16.73;6.43;;;;;;;;;;10319660;28;20030;-72
2023/03/17 10:44:49;;;;;;;7.65;5.10;;;;;;;;;;10322471;28;20045;-72
2023/03/17 10:49:51;;;;;;;10.02;5.25;;;;;;;;;;10335662;28;20042;-72
2023/03/17 10:54:51;;;;;;;14.07;5.88;;;;;;;;;;10334824;28;20133;-71
2023/03/17 10:59:52;;;;;;;10.57;5.32;;;;;;;;;;10341624;28;20396;-70
2023/03/17 11:04:54;;;;;;;9.50;5.70;;;;;;;;;;10356809;28;20519;-72
2023/03/17 11:09:57;;;;;;;12.25;5.55;;;;;;;;;;10341661;28;20049;-71
2023/03/17 11:15:03;;;;;;;12.45;6.22;;;;;;;;;;10341447;28;20065;-71
2023/03/17 11:20:03;;;;;;;15.82;6.43;;;;;;;;;;10342776;28;20029;-72
2023/03/17 11:25:10;;;;;;;10.97;4.57;;;;;;;;;;10347272;28;20045;-71
2023/03/17 11:30:15;;;;;;;9.68;5.25;;;;;;;;;;10340712;28;20095;-72
2023/03/17 11:35:22;;;;;;;18.42;5.35;;;;;;;;;;10324233;28;20045;-72
2023/03/17 11:40:26;;;;;;;12.70;5.70;;;;;;;;;;10302313;28;20421;-71
2023/03/17 11:45:29;;;;;;;10.00;4.82;;;;;;;;;;10309091;28;20072;-71
2023/03/17 11:50:48;;;;;;;11.75;5.50;;;;;;;;;;10339633;28;20139;-71
2023/03/17 11:55:52;;;;;;;11.70;5.05;;;;;;;;;;10329959;28;20038;-71
2023/03/17 12:00:59;;;;;;;15.50;5.55;;;;;;;;;;10325899;28;20060;-72
2023/03/17 12:06:04;;;;;;;10.77;5.47;;;;;;;;;;10340237;28;20043;-70
2023/03/17 12:11:07;;;;;;;12.18;5.95;;;;;;;;;;10334721;28;20028;-72
2023/03/17 12:16:10;;;;;;;8.73;5.95;;;;;;;;;;10318818;28;20100;-70
2023/03/17 12:21:10;;;;;;;12.38;5.70;;;;;;;;;;10339328;28;20453;-71
2023/03/17 12:26:12;;;;;;;13.07;5.43;;;;;;;;;;10338408;28;20124;-72
2023/03/17 12:31:16;;;;;;;8.10;4.53;;;;;;;;;;10338856;28;20634;-71
2023/03/17 12:36:17;;;;;;;15.18;4.57;;;;;;;;;;10339303;28;20048;-71
2023/03/17 12:41:20;;;;;;;13.85;5.18;;;;;;;;;;10338623;28;20394;-71
2023/03/17 12:46:32;;;;;;;11.63;5.78;;;;;;;;;;10341164;28;20477;-71
2023/03/17 12:51:58;;;;;;;7.10;3.63;;;;;;;;;;10346983;28;20037;-70
2023/03/17 12:57:01;;;;;;;5.10;2.45;;;;;;;;;;10343982;28;20042;-71
2023/03/17 13:02:16;;;;;;;4.88;2.70;;;;;;;;;;10346858;28;20030;-71
2023/03/17 13:07:20;;;;;;;6.78;3.38;;;;;;;;;;10346154;28;20034;-70
2023/03/17 13:12:40;;;;;;;3.17;1.88;;;;;;;;;;10346134;28;20045;-71
2023/03/17 13:17:40;;;;;;;2.72;1.40;;;;;;;;;;10337368;28;20454;-70
2023/03/17 13:23:00;;;;;;;3.17;1.83;;;;;;;;;;10305528;28;20027;-71
2023/03/17 13:28:10;;;;;;;2.03;1.55;;;;;;;;;;10323225;28;20462;-71
2023/03/17 13:33:16;;;;;;;2.35;1.42;;;;;;;;;;10345437;28;20469;-71
2023/03/17 13:38:22;;;;;;;3.30;1.45;;;;;;;;;;10344701;28;20134;-71
2023/03/17 13:43:29;;;;;;;7.20;1.50;;;;;;;;;;10345097;28;20037;-71
2023/03/17 13:48:32;;;;;;;1.55;1.42;;;;;;;;;;10344275;28;20052;-73
2023/03/17 13:53:34;;;;;;;3.10;1.50;;;;;;;;;;10344145;28;20029;-70
2023/03/17 13:58:47;;;;;;;5.20;1.58;;;;;;;;;;10342562;28;20492;-71
2023/03/17 14:03:49;;;;;;;3.10;1.70;;;;;;;;;;10358903;28;20199;-71
2023/03/17 14:08:51;;;;;;;3.80;1.65;;;;;;;;;;10343856;28;20113;-71
2023/03/17 14:13:54;;;;;;;2.72;1.55;;;;;;;;;;10343605;28;20411;-71
2023/03/17 14:18:59;;;;;;;5.95;1.98;;;;;;;;;;10358131;28;20594;-71
2023/03/17 14:24:00;;;;;;;5.22;2.15;;;;;;;;;;10343209;28;20120;-71
2023/03/17 14:29:02;;;;;;;3.97;2.33;;;;;;;;;;10342606;28;20026;-71
2023/03/17 14:34:02;;;;;;;3.15;2.15;;;;;;;;;;10341989;28;20376;-71
2023/03/17 14:39:03;;;;;;;2.20;1.70;;;;;;;;;;10343185;28;20030;-71
2023/03/17 14:44:07;;;;;;;2.95;1.80;;;;;;;;;;10341947;28;20160;-71
2023/03/17 14:49:13;;;;;;;5.35;2.50;;;;;;;;;;10343700;28;20065;-76
2023/03/17 14:54:14;;;;;;;2.05;1.70;;;;;;;;;;10348012;28;20508;-73
2023/03/17 14:59:21;;;;;;;3.05;2.08;;;;;;;;;;10342969;28;20042;-72
2023/03/17 15:04:31;;;;;;;4.70;2.70;;;;;;;;;;10341417;28;20165;-73
2023/03/17 15:09:32;;;;;;;5.22;2.95;;;;;;;;;;10341570;28;20462;-72
2023/03/17 15:14:39;;;;;;;4.78;2.38;;;;;;;;;;10356132;28;20056;-73
2023/03/17 15:19:41;;;;;;;3.70;2.65;;;;;;;;;;10339979;28;20049;-72
2023/03/17 15:24:42;;;;;;;5.57;3.00;;;;;;;;;;10340021;28;20042;-73
2023/03/17 15:29:43;;;;;;;4.38;2.53;;;;;;;;;;10338912;28;20037;-74
2023/03/17 15:34:44;;;;;;;3.13;2.00;;;;;;;;;;10322152;28;20046;-74
2023/03/17 15:39:45;;;;;;;13.23;2.95;;;;;;;;;;10336195;28;20563;-72
2023/03/17 15:44:46;;;;;;;3.38;2.40;;;;;;;;;;10354680;28;20057;-73
2023/03/17 15:49:47;;;;;;;6.22;2.65;;;;;;;;;;10339067;28;20046;-73
2023/03/17 15:54:48;;;;;;;8.02;4.35;;;;;;;;;;10338522;28;20677;-74
2023/03/17 15:59:48;;;;;;;5.45;3.45;;;;;;;;;;10339090;28;20030;-76
2023/03/17 16:04:49;;;;;;;4.53;2.60;;;;;;;;;;10338730;28;20523;-75
2023/03/17 16:09:49;;;;;;;4.87;2.87;;;;;;;;;;10339612;28;20505;-75
2023/03/17 16:14:50;;;;;;;7.43;3.22;;;;;;;;;;10339065;28;20042;-74
2023/03/17 16:19:51;;;;;;;9.93;3.25;;;;;;;;;;10338030;28;20067;-74
2023/03/17 16:24:51;;;;;;;8.32;3.35;;;;;;;;;;10329508;28;20042;-77
2023/03/17 16:29:52;;;;;;;10.02;2.67;;;;;;;;;;10299002;28;20030;-76
2023/03/17 16:34:52;;;;;;;5.80;3.15;;;;;;;;;;10298634;28;20038;-75
2023/03/17 16:39:52;;;;;;;5.20;3.25;;;;;;;;;;10315390;28;20037;-75
2023/03/17 16:44:53;;;;;;;5.78;3.53;;;;;;;;;;10337733;28;20089;-74
2023/03/17 16:49:53;;;;;;;8.05;3.58;;;;;;;;;;10323153;28;20517;-77
2023/03/17 16:54:53;;;;;;;8.45;3.97;;;;;;;;;;10315949;28;20801;-77
2023/03/17 16:59:54;;;;;;;5.13;3.15;;;;;;;;;;10309921;28;20061;-80
2023/03/17 17:04:54;;;;;;;8.73;3.55;;;;;;;;;;10325316;28;20038;-76
2023/03/17 17:09:54;;;;;;;4.57;2.90;;;;;;;;;;10345032;28;20666;-75
2023/03/17 17:14:55;;;;;;;9.45;3.72;;;;;;;;;;10316951;28;20046;-74
2023/03/17 17:19:55;;;;;;;5.70;3.67;;;;;;;;;;10314530;28;20304;-75
2023/03/17 17:24:55;;;;;;;7.15;3.30;;;;;;;;;;10310386;28;20284;-76
2023/03/17 17:29:56;;;;;;;10.20;3.70;;;;;;;;;;10311639;28;20110;-74
2023/03/17 17:34:56;;;;;;;10.43;4.20;;;;;;;;;;10312847;28;20069;-77
2023/03/17 17:39:56;;;;;;;6.33;3.60;;;;;;;;;;10330165;28;20629;-79
2023/03/17 17:44:57;;;;;;;10.43;5.03;;;;;;;;;;10331050;28;20057;-80
2023/03/17 17:49:57;;;;;;;17.37;4.90;;;;;;;;;;10333779;28;20280;-78
2023/03/17 17:54:59;;;;;;;12.13;4.38;;;;;;;;;;10326940;28;20527;-78
2023/03/17 18:00:00;;;;;;;13.77;5.32;;;;;;;;;;10337001;28;20043;-76
2023/03/17 18:05:21;;;;;;;13.10;6.03;;;;;;;;;;10322701;28;20046;-84
2023/03/17 18:10:23;;;;;;;11.65;7.57;;;;;;;;;;10317769;28;20289;-79
2023/03/17 18:15:24;;;;;;;20.88;6.97;;;;;;;;;;10332034;28;20177;-82
2023/03/17 18:20:24;;;;;;;17.40;6.60;;;;;;;;;;10316705;28;20065;-81
2023/03/17 18:25:25;;;;;;;17.30;7.10;;;;;;;;;;10317134;28;20397;-84
2023/03/17 18:30:27;;;;;;;11.35;6.20;;;;;;;;;;10362128;28;20261;-79
2023/03/17 18:35:28;;;;;;;15.95;7.15;;;;;;;;;;10340770;28;20060;-79
2023/03/17 18:40:28;;;;;;;13.23;6.60;;;;;;;;;;10342276;28;20397;-81
2023/03/17 18:45:29;;;;;;;18.40;7.73;;;;;;;;;;10337740;28;20061;-79
2023/03/17 18:50:29;;;;;;;18.67;6.93;;;;;;;;;;10333155;28;20284;-81
2023/03/17 18:55:29;;;;;;;13.03;6.87;;;;;;;;;;10329539;28;20038;-77
2023/03/17 19:00:30;;;;;;;19.80;7.23;;;;;;;;;;10326830;28;20771;-83
2023/03/17 19:05:33;;;;;;;11.33;6.60;;;;;;;;;;10328221;28;20274;-79
2023/03/17 19:10:34;;;;;;;14.60;7.57;;;;;;;;;;10331199;28;20276;-79
2023/03/17 19:15:34;;;;;;;16.60;7.77;;;;;;;;;;10327740;28;20038;-81
2023/03/17 19:20:35;;;;;;;20.58;7.60;;;;;;;;;;10325236;28;20698;-77
2023/03/17 19:25:36;;;;;;;17.52;8.43;;;;;;;;;;10315436;28;20029;-77
2023/03/17 19:30:37;;;;;;;18.23;8.80;;;;;;;;;;10333377;28;20043;-76
2023/03/17 19:35:38;;;;;;;25.92;11.45;;;;;;;;;;10328913;28;20440;-76
2023/03/17 19:40:38;;;;;;;27.10;13.07;;;;;;;;;;10313034;28;20030;-78
2023/03/17 19:46:05;;;;;;;18.23;10.82;;;;;;;;;;10311874;28;20054;-82
2023/03/17 19:51:06;;;;;;;22.60;10.90;;;;;;;;;;10329813;28;20598;-79
2023/03/17 19:56:07;;;;;;;18.75;10.40;;;;;;;;;;10319324;28;20038;-76
2023/03/17 20:01:07;;;;;;;34.33;14.65;;;;;;;;;;10311196;28;20456;-73
2023/03/17 20:06:11;;;;;;;22.83;11.03;;;;;;;;;;10320092;28;20465;-77
2023/03/17 20:11:12;;;;;;;38.60;12.27;;;;;;;;;;10331479;28;20486;-74
2023/03/17 20:16:12;;;;;;;25.23;12.50;;;;;;;;;;10317159;28;20033;-70
2023/03/17 20:21:13;;;;;;;36.88;11.13;;;;;;;;;;10317306;28;20398;-71
2023/03/17 20:26:13;;;;;;;27.47;11.03;;;;;;;;;;10327796;28;20061;-71
2023/03/17 20:31:14;;;;;;;22.60;10.65;;;;;;;;;;10315841;28;20422;-72
2023/03/17 20:36:15;;;;;;;26.88;11.45;;;;;;;;;;10331961;28;20038;-75
2023/03/17 20:41:20;;;;;;;27.13;11.07;;;;;;;;;;10313841;28;20026;-87
2023/03/17 20:46:37;;;;;;;27.33;12.32;;;;;;;;;;10358391;28;20049;-87
2023/03/17 20:51:47;;;;;;;24.00;11.50;;;;;;;;;;10354344;28;20030;-85
2023/03/17 20:56:51;;;;;;;35.08;13.80;;;;;;;;;;10359318;28;20754;-77
2023/03/17 21:01:51;;;;;;;33.13;13.90;;;;;;;;;;10353222;28;20072;-81
2023/03/17 21:06:54;;;;;;;22.17;12.40;;;;;;;;;;10362371;28;20056;-85
2023/03/17 21:17:16;;;;;;;23.25;11.35;;;;;;;;;;10348845;28;20097;-82
2023/03/17 21:22:17;;;;;;;25.65;13.55;;;;;;;;;;10367627;28;20390;-77
2023/03/17 21:27:20;;;;;;;28.07;12.13;;;;;;;;;;10333857;28;20034;-75
2023/03/17 21:32:21;;;;;;;31.13;12.98;;;;;;;;;;10321779;28;20308;-75
2023/03/17 21:37:21;;;;;;;36.75;13.45;;;;;;;;;;10319062;28;20445;-75
2023/03/17 21:42:23;;;;;;;30.30;11.00;;;;;;;;;;10322106;28;20038;-75
2023/03/17 21:47:23;;;;;;;25.75;12.77;;;;;;;;;;10337777;28;20065;-74
2023/03/17 21:52:24;;;;;;;27.97;12.70;;;;;;;;;;10323431;28;20050;-75
2023/03/17 21:57:26;;;;;;;25.93;13.03;;;;;;;;;;10327102;28;20648;-74
2023/03/17 22:02:27;;;;;;;32.20;13.38;;;;;;;;;;10323941;28;20033;-74
2023/03/17 22:07:28;;;;;;;33.13;14.48;;;;;;;;;;10318352;28;20069;-75
2023/03/17 22:12:28;;;;;;;30.10;13.95;;;;;;;;;;10315376;28;20113;-75
2023/03/17 22:17:28;;;;;;;32.28;14.05;;;;;;;;;;10316783;28;20465;-75
2023/03/17 22:22:29;;;;;;;31.65;14.05;;;;;;;;;;10309034;28;20038;-75
2023/03/17 22:27:29;;;;;;;23.67;12.87;;;;;;;;;;10317914;28;20832;-75
2023/03/17 22:32:29;;;;;;;23.98;13.48;;;;;;;;;;10326769;28;20359;-75
2023/03/17 22:37:30;;;;;;;34.28;14.02;;;;;;;;;;10325291;28;20036;-75
2023/03/17 22:42:31;;;;;;;33.00;13.98;;;;;;;;;;10321940;28;20030;-75
2023/03/17 22:47:31;;;;;;;26.27;13.38;;;;;;;;;;10319065;28;20061;-76
2023/03/17 22:52:32;;;;;;;26.40;13.57;;;;;;;;;;10340554;28;20040;-74
2023/03/17 22:57:32;;;;;;;26.20;12.87;;;;;;;;;;10341242;28;20069;-77
2023/03/17 23:02:33;;;;;;;26.45;13.48;;;;;;;;;;10341352;28;20026;-76
2023/03/17 23:07:34;;;;;;;36.47;14.05;;;;;;;;;;10357643;28;20026;-76
2023/03/17 23:12:35;;;;;;;31.70;13.82;;;;;;;;;;10356396;28;20030;-76
2023/03/17 23:17:35;;;;;;;27.13;15.27;;;;;;;;;;10340528;28;20032;-77
2023/03/17 23:22:37;;;;;;;33.25;15.18;;;;;;;;;;10340743;28;20136;-76
2023/03/17 23:27:37;;;;;;;37.30;15.82;;;;;;;;;;10340754;28;20151;-76
2023/03/17 23:32:39;;;;;;;29.70;14.13;;;;;;;;;;10319175;28;20489;-76
2023/03/17 23:37:40;;;;;;;35.60;14.50;;;;;;;;;;10303850;28;20050;-77
2023/03/17 23:42:40;;;;;;;30.73;15.80;;;;;;;;;;10315799;28;20420;-77
2023/03/17 23:47:41;;;;;;;32.53;15.50;;;;;;;;;;10328981;28;20133;-76
2023/03/17 23:52:42;;;;;;;33.78;16.42;;;;;;;;;;10340858;28;20157;-77
2023/03/17 23:57:43;;;;;;;42.83;16.90;;;;;;;;;;10339276;28;20140;-77
